»·PEaware :: N982YR KSAC-KPAO

N982YR :: KSAC-KPAO

FLIGHT INFORMATION

Flight Status: Arrived
Operator: Privately registered:
United States
More flights under this callsign
Pilot: Anonymous 15639 (15639)
Aircraft: CESSNA 172 SKYHAWK
(C172)
More flights by this aircraft type
Origin: KSAC Sacramento Executive
United States
Destination: KPAO Palo Alto Of Santa Clara Co
United States
More flights between these airports :: More routes between these airports
Route: +
File this flight plan on PilotEdge
Remarks:
Altitude:
(Current/Filed)
0ft
Speed:
(Current/Filed)
0kts
Departed: 06-Sep-18 11:26 AM
Arrived: 06-Sep-18 12:08 PM
Distance/Time
Traveled:
70nm/0:42
Distance/Time
To Go:
Arrived

Flight Plot

Page will automatically refresh every two minutes.

Flight plan parsing failed; only flown route is shown


Map Options




Map Legend


Flown Route
Filed Route
Departure Airport
Arrival Airport
Navaid (VOR, NDB)
Fix

Horizontal Profiles

Position Reports

Time Latitude Longitude Heading Altitude Ground
Speed
06-Sep-18 11:21 38.514102 -121.497150 120 27ft 0kts
06-Sep-18 11:22 38.514102 -121.497150 120 27ft 0kts
06-Sep-18 11:23 38.513627 -121.496137 105 27ft 5kts
06-Sep-18 11:24 38.514808 -121.494445 32 27ft 8kts
06-Sep-18 11:25 38.516970 -121.492633 34 27ft 9kts
06-Sep-18 11:26 38.519222 -121.490741 58 27ft 4kts
06-Sep-18 11:27 38.518712 -121.489531 211 27ft 6kts
06-Sep-18 11:28 38.510715 -121.496425 215 213ft 65kts
06-Sep-18 11:29 38.494250 -121.509952 212 840ft 75kts
06-Sep-18 11:30 38.475704 -121.522846 209 1496ft 77kts
06-Sep-18 11:31 38.456846 -121.536319 215 2103ft 79kts
06-Sep-18 11:32 38.439054 -121.553411 210 2675ft 81kts
06-Sep-18 11:32 38.421532 -121.562437 198 3133ft 82kts
06-Sep-18 11:34 38.396762 -121.575255 202 3738ft 82kts
06-Sep-18 11:35 38.375335 -121.586051 205 4230ft 82kts
06-Sep-18 11:36 38.352557 -121.597072 202 4526ft 101kts
06-Sep-18 11:36 38.327956 -121.608628 205 4485ft 117kts
06-Sep-18 11:37 38.298079 -121.624109 205 4486ft 115kts
06-Sep-18 11:38 38.268655 -121.639148 205 4486ft 112kts
06-Sep-18 11:40 38.235425 -121.656150 204 4500ft 109kts
06-Sep-18 11:40 38.212112 -121.668250 204 4500ft 108kts
06-Sep-18 11:41 38.184292 -121.682415 203 4499ft 107kts
06-Sep-18 11:42 38.156514 -121.696197 203 4500ft 106kts
06-Sep-18 11:43 38.128916 -121.709959 204 4501ft 106kts
06-Sep-18 11:44 38.101330 -121.723745 204 4502ft 107kts
06-Sep-18 11:45 38.073600 -121.737614 205 4504ft 107kts
06-Sep-18 11:46 38.045605 -121.751619 205 4508ft 109kts
06-Sep-18 11:47 38.017139 -121.765858 205 4511ft 112kts
06-Sep-18 11:48 37.987244 -121.780782 204 4514ft 118kts
06-Sep-18 11:49 37.956114 -121.796321 204 4472ft 123kts
06-Sep-18 11:50 37.924426 -121.812116 204 4472ft 123kts
06-Sep-18 11:51 37.892578 -121.827964 203 4472ft 123kts
06-Sep-18 11:52 37.860736 -121.843752 203 4472ft 123kts
06-Sep-18 11:53 37.828848 -121.859679 203 4109ft 123kts
06-Sep-18 11:54 37.797154 -121.875824 203 3608ft 123kts
06-Sep-18 11:55 37.765857 -121.892348 203 3107ft 121kts
06-Sep-18 11:56 37.734951 -121.909067 203 2972ft 120kts
06-Sep-18 11:57 37.704317 -121.925648 203 2972ft 120kts
06-Sep-18 11:58 37.674810 -121.945132 211 2967ft 120kts
06-Sep-18 11:59 37.646640 -121.967325 212 2986ft 119kts
06-Sep-18 12:00 37.618579 -121.989750 213 2781ft 118kts
06-Sep-18 12:01 37.590668 -122.012038 213 2194ft 119kts
06-Sep-18 12:02 37.562728 -122.034302 213 1592ft 118kts
06-Sep-18 12:03 37.535765 -122.055745 213 1399ft 110kts
06-Sep-18 12:04 37.510616 -122.075682 213 1402ft 103kts
06-Sep-18 12:05 37.487192 -122.094916 217 1192ft 99kts
06-Sep-18 12:06 37.464958 -122.093891 133 983ft 81kts
06-Sep-18 12:07 37.448675 -122.091840 234 622ft 71kts
06-Sep-18 12:08 37.456523 -122.110508 324 83ft 62kts
06-Sep-18 12:09 37.461259 -122.115809 142 6ft 4kts
06-Sep-18 12:10 37.459433 -122.114206 182 6ft 5kts

Navigation Log

Ident Type
Flight plan parsing failed, navigation log unavailable